SBOSBO DXB / OMDB
Speedbird OnlineSpeedbird Online DXB / OMDB

Dubai International Airport
01:31 28.1°C

Location Dubai, United Arab Emirates
Latitude: 25.2527999878
Longitude: 55.3643989563
Local Time 01:31 on 21 May 2024
UTC +4 hours (Asia/Dubai)
Currency £1 equals AED 4.67
METAR OMDB 202100Z 19007KT 9000 FEW015 28/25 Q1005 NOSIG
TAF TAF AMD OMDB 201923Z 2019/2200 18005KT 8000 NSC PROB30 2021/2104 1500 BR BKN005 BECMG 2106/2108 29013KT BECMG 2116/2118 17005KT
Weather As Of 21 May 2024 01:31
Description Few clouds
Wind 13 km/h from South (190°)
Cloud Cover 20%
Precipitation Rain: none, Snow: none
Sunrise 05:31
Sunset 18:59
NOTAM 34 active NOTAM
Rotations During the last 90 days there were
229 flights from LHR
1 flights from
222 flights to LHR
Lounges British Airways Lounge , Terminal 1
Marhaba Lounge, Terminal 1
Ahlan First Class Lounge, Terminal 1
Ahlan Business Class Lounge, Terminal 1
Marhaba Lounge, Terminal 3
The Gallery & Cadiz Lounge, Terminal 3
Emirates First Lounge, Terminal 3
Emirates Business Lounge, Terminal 3
Web Airport Website | Wikipedia
Codes IATA: DXB
ICAO: OMDB
Altitude 19 Meter / 62 Feet
Distance 5,459 KM / 3,392 Miles
from London.
Runways
RunwayLength (m)Surface
12L4351Asphalt
12R4447Asphalt
30L4447Asphalt
30R4351Asphalt
Radio
TypeDescriptionFrequency
ARRARR124.9
ATISATIS131.7
DEPDEP124.45
GNDGND118.35
TWRTWR118.75
Live ATC



Support Speedbird Online

© 2017-2024 Speedbird Online